createdAt,value
2023-04-01T00:03:29.142Z,15.96
2023-04-01T00:05:59.132Z,15.88
2023-04-01T00:08:29.290Z,16.05
2023-04-01T00:11:12.808Z,15.99
2023-04-01T00:13:48.283Z,15.98
2023-04-01T00:16:22.219Z,15.86
2023-04-01T00:19:09.121Z,15.88
2023-04-01T00:21:41.761Z,15.80
2023-04-01T00:24:16.089Z,15.70
2023-04-01T00:26:46.457Z,15.70
2023-04-01T00:29:13.357Z,15.79
2023-04-01T00:31:40.464Z,15.69
2023-04-01T00:34:43.707Z,15.54
2023-04-01T00:37:14.842Z,15.60
2023-04-01T00:39:41.848Z,15.58
2023-04-01T00:42:17.436Z,15.59
2023-04-01T00:44:58.790Z,15.61
2023-04-01T00:47:33.494Z,15.60
2023-04-01T00:50:03.431Z,15.48
2023-04-01T00:52:32.638Z,15.34
2023-04-01T00:55:15.764Z,15.34
2023-04-01T00:57:44.948Z,15.29
2023-04-01T01:00:22.745Z,15.33
2023-04-01T01:02:52.418Z,15.35
2023-04-01T01:05:49.439Z,15.40
2023-04-01T01:08:41.177Z,15.33
2023-04-01T01:11:15.181Z,15.45
2023-04-01T01:14:05.990Z,15.59
2023-04-01T01:16:50.205Z,15.67
2023-04-01T01:19:56.637Z,15.49
2023-04-01T01:23:14.849Z,15.37
2023-04-01T01:26:18.185Z,15.49
2023-04-01T01:29:26.885Z,15.54
2023-04-01T01:32:35.630Z,15.58
2023-04-01T01:35:20.483Z,15.33
2023-04-01T01:38:16.011Z,15.14
2023-04-01T01:40:53.440Z,15.29
2023-04-01T01:43:27.369Z,15.33
2023-04-01T01:45:58.344Z,15.33
2023-04-01T01:48:43.892Z,15.31
2023-04-01T01:51:14.345Z,15.25
2023-04-01T01:53:42.181Z,15.30
2023-04-01T01:56:42.829Z,15.14
2023-04-01T01:59:40.973Z,14.99
2023-04-01T02:02:12.702Z,14.90
2023-04-01T02:04:42.638Z,14.97
2023-04-01T02:07:18.587Z,15.03
2023-04-01T02:09:48.384Z,15.13
2023-04-01T02:12:18.165Z,15.22
2023-04-01T02:14:49.292Z,15.22
2023-04-01T02:17:27.856Z,15.21
2023-04-01T02:20:16.660Z,15.27
2023-04-01T02:23:00.918Z,15.17
2023-04-01T02:25:32.213Z,15.16
2023-04-01T02:28:01.954Z,15.08
2023-04-01T02:30:31.218Z,15.22
2023-04-01T02:33:01.218Z,15.31
2023-04-01T02:35:34.925Z,15.35
2023-04-01T02:38:03.288Z,15.28
2023-04-01T02:40:50.842Z,15.18
2023-04-01T02:43:18.657Z,15.30
2023-04-01T02:45:45.832Z,15.27
2023-04-01T02:48:14.062Z,15.09
2023-04-01T02:50:50.170Z,15.11
2023-04-01T02:53:20.080Z,15.28
2023-04-01T02:55:51.909Z,15.36
2023-04-01T02:58:22.678Z,15.17
2023-04-01T03:00:52.768Z,15.06
2023-04-01T03:03:22.732Z,14.87
2023-04-01T03:05:57.449Z,14.92
2023-04-01T03:08:27.353Z,14.94
2023-04-01T03:10:54.407Z,15.05
2023-04-01T03:13:34.281Z,14.97
2023-04-01T03:16:09.746Z,15.04
2023-04-01T03:18:36.643Z,14.97
2023-04-01T03:21:31.279Z,14.90
2023-04-01T03:24:01.226Z,14.58
2023-04-01T03:26:31.237Z,14.37
2023-04-01T03:29:04.688Z,14.75
2023-04-01T03:31:56.297Z,14.59
2023-04-01T03:37:11.399Z,14.00
2023-04-01T03:39:47.227Z,13.94
2023-04-01T03:42:14.194Z,14.02
2023-04-01T03:44:47.590Z,13.95
2023-04-01T03:47:30.253Z,14.15
2023-04-01T03:49:57.170Z,14.05
2023-04-01T03:52:24.106Z,14.40
2023-04-01T03:54:50.973Z,14.23
2023-04-01T03:57:18.073Z,14.35
2023-04-01T04:00:03.711Z,14.30
2023-04-01T04:02:33.516Z,14.07
2023-04-01T04:05:02.948Z,13.90
2023-04-01T04:10:30.808Z,14.03
2023-04-01T04:13:10.878Z,14.31
2023-04-01T04:15:42.675Z,13.83
2023-04-01T04:18:23.294Z,13.69
2023-04-01T04:21:14.601Z,13.78
2023-04-01T04:23:52.519Z,13.72
2023-04-01T04:26:28.890Z,13.76
2023-04-01T04:29:07.381Z,13.68
2023-04-01T04:31:59.307Z,13.74
2023-04-01T04:34:45.682Z,14.11
2023-04-01T04:37:38.608Z,14.37
2023-04-01T04:40:11.116Z,14.28
2023-04-01T04:42:47.274Z,14.47
2023-04-01T04:45:37.870Z,14.56
2023-04-01T04:48:20.117Z,14.44
2023-04-01T04:51:03.707Z,14.17
2023-04-01T04:53:34.579Z,14.21
2023-04-01T04:56:06.037Z,13.91
2023-04-01T04:58:46.084Z,13.61
2023-04-01T05:01:32.318Z,13.80
2023-04-01T05:04:13.224Z,14.50
2023-04-01T05:06:47.400Z,13.99
2023-04-01T05:09:26.331Z,13.67
2023-04-01T05:11:53.410Z,13.72
2023-04-01T05:14:36.326Z,13.69
2023-04-01T05:17:25.342Z,13.47
2023-04-01T05:19:52.527Z,13.42
2023-04-01T05:22:19.922Z,13.32
2023-04-01T05:24:52.847Z,13.37
2023-04-01T05:27:19.867Z,13.37
2023-04-01T05:29:49.241Z,13.54
2023-04-01T05:32:19.175Z,13.58
2023-04-01T05:34:52.068Z,13.78
2023-04-01T05:37:21.938Z,13.66
2023-04-01T05:39:49.309Z,13.59
2023-04-01T05:42:18.587Z,13.65
2023-04-01T05:44:45.738Z,13.65
2023-04-01T05:47:12.625Z,13.61
2023-04-01T05:49:43.370Z,13.37
2023-04-01T05:52:10.216Z,13.42
2023-04-01T05:54:42.679Z,13.34
2023-04-01T05:57:14.376Z,13.35
2023-04-01T05:59:41.432Z,13.77
2023-04-01T06:02:12.599Z,13.94
2023-04-01T06:04:52.501Z,14.17
2023-04-01T06:07:20.261Z,14.04
2023-04-01T06:09:50.300Z,13.97
2023-04-01T06:12:53.268Z,13.91
2023-04-01T06:15:37.812Z,13.88
2023-04-01T06:18:35.881Z,13.85
2023-04-01T06:21:43.352Z,13.85
2023-04-01T06:27:44.644Z,14.09
2023-04-01T06:30:46.220Z,14.00
2023-04-01T06:33:39.261Z,14.00
2023-04-01T06:36:43.976Z,14.12
2023-04-01T06:39:42.870Z,14.08
2023-04-01T06:43:03.369Z,13.95
2023-04-01T06:45:52.497Z,13.88
2023-04-01T06:48:42.718Z,13.95
2023-04-01T06:52:00.832Z,13.78
2023-04-01T06:54:42.368Z,13.88
2023-04-01T07:00:35.535Z,14.05
2023-04-01T07:03:27.858Z,14.05
2023-04-01T07:06:05.289Z,14.20
2023-04-01T07:08:37.880Z,14.18
2023-04-01T07:14:06.114Z,14.25
2023-04-01T07:17:04.608Z,14.44
2023-04-01T07:19:51.339Z,14.45
2023-04-01T07:22:41.504Z,14.92
2023-04-01T07:25:35.877Z,15.01
2023-04-01T07:28:25.505Z,15.07
2023-04-01T07:31:17.836Z,14.97
2023-04-01T07:34:23.913Z,14.90
2023-04-01T07:37:17.772Z,14.90
2023-04-01T07:40:03.714Z,14.94
2023-04-01T07:42:57.438Z,15.09
2023-04-01T07:45:37.456Z,14.97
2023-04-01T07:48:30.025Z,15.09
2023-04-01T07:51:30.521Z,14.93
2023-04-01T07:54:21.232Z,14.99
2023-04-01T07:57:38.286Z,14.99
2023-04-01T08:00:29.414Z,14.88
2023-04-01T08:03:16.359Z,14.97
2023-04-01T08:06:41.175Z,15.05
2023-04-01T08:09:45.069Z,14.93
2023-04-01T08:12:18.790Z,15.33
2023-04-01T08:15:10.260Z,15.30
2023-04-01T08:18:00.557Z,15.15
2023-04-01T08:20:53.944Z,15.14
2023-04-01T08:23:28.429Z,15.30
2023-04-01T08:26:17.457Z,15.27
2023-04-01T08:29:02.199Z,15.31
2023-04-01T08:31:55.398Z,15.34
2023-04-01T08:34:29.148Z,15.51
2023-04-01T08:37:06.838Z,15.58
2023-04-01T08:39:43.516Z,15.57
2023-04-01T08:43:03.210Z,15.55
2023-04-01T08:46:01.525Z,15.65
2023-04-01T08:48:47.754Z,15.72
2023-04-01T08:52:00.352Z,15.95
2023-04-01T08:54:56.713Z,15.99
2023-04-01T08:57:56.826Z,15.90
2023-04-01T09:01:11.765Z,15.96
2023-04-01T09:04:24.018Z,15.96
2023-04-01T09:07:42.606Z,15.88
2023-04-01T09:10:47.199Z,16.22
2023-04-01T09:13:39.502Z,16.24
2023-04-01T09:16:45.484Z,16.41
2023-04-01T09:19:31.638Z,16.49
2023-04-01T09:22:25.146Z,16.54
2023-04-01T09:25:26.292Z,16.62
2023-04-01T09:28:24.962Z,16.69
2023-04-01T09:31:11.810Z,16.89
2023-04-01T09:33:44.646Z,16.95
2023-04-01T09:39:28.353Z,17.31
2023-04-01T09:42:10.538Z,17.45
2023-04-01T09:44:42.971Z,17.59
2023-04-01T09:47:47.111Z,17.70
2023-04-01T09:50:35.443Z,17.65
2023-04-01T09:53:50.569Z,17.72
2023-04-01T09:56:55.371Z,18.09
2023-04-01T09:59:53.832Z,18.06
2023-04-01T10:02:57.773Z,18.42
2023-04-01T10:05:27.946Z,18.65
2023-04-01T10:08:26.841Z,18.52
2023-04-01T10:11:18.916Z,18.67
2023-04-01T10:14:25.693Z,18.81
2023-04-01T10:17:12.138Z,19.08
2023-04-01T10:20:03.820Z,19.11
2023-04-01T10:23:12.868Z,18.92
2023-04-01T10:26:26.217Z,19.09
2023-04-01T10:29:34.896Z,19.34
2023-04-01T10:32:29.027Z,19.79
2023-04-01T10:35:39.244Z,19.81
2023-04-01T10:38:16.138Z,19.63
2023-04-01T10:41:20.959Z,19.66
2023-04-01T10:44:14.654Z,20.05
2023-04-01T10:46:44.710Z,20.24
2023-04-01T10:49:25.942Z,20.34
2023-04-01T10:52:02.297Z,20.74
2023-04-01T10:55:22.007Z,20.83
2023-04-01T10:58:29.169Z,20.91
2023-04-01T11:01:31.173Z,20.95
2023-04-01T11:04:24.456Z,20.69
2023-04-01T11:07:00.429Z,20.38
2023-04-01T11:10:00.915Z,20.72
2023-04-01T11:13:12.033Z,20.55
2023-04-01T11:16:10.377Z,21.00
2023-04-01T11:19:01.689Z,21.14
2023-04-01T11:21:47.194Z,21.06
2023-04-01T11:24:40.579Z,21.32
2023-04-01T11:27:49.431Z,21.38
2023-04-01T11:30:43.592Z,21.67
2023-04-01T11:33:54.396Z,21.72
2023-04-01T11:36:46.500Z,21.77
2023-04-01T11:39:31.591Z,20.98
2023-04-01T11:42:17.318Z,21.40
2023-04-01T11:45:38.305Z,21.34
2023-04-01T11:48:05.383Z,21.93
2023-04-01T11:50:50.209Z,22.21
2023-04-01T11:53:45.838Z,22.33
2023-04-01T11:56:43.290Z,22.55
2023-04-01T11:59:56.314Z,22.81
2023-04-01T12:03:01.001Z,22.63
2023-04-01T12:05:48.323Z,22.80
2023-04-01T12:08:33.246Z,23.18
2023-04-01T12:11:16.974Z,23.14
2023-04-01T12:14:25.321Z,22.92
2023-04-01T12:20:10.213Z,23.32
2023-04-01T12:22:51.519Z,23.43
2023-04-01T12:25:57.357Z,23.63
2023-04-01T12:28:53.974Z,23.73
2023-04-01T12:31:35.617Z,23.71
2023-04-01T12:34:14.648Z,23.08
2023-04-01T12:37:01.044Z,22.53
2023-04-01T12:39:41.350Z,22.07
2023-04-01T12:43:02.360Z,22.03
2023-04-01T12:46:00.088Z,21.96
2023-04-01T12:48:42.644Z,22.16
2023-04-01T12:51:41.095Z,21.83
2023-04-01T12:54:46.415Z,21.33
2023-04-01T12:57:50.948Z,21.80
2023-04-01T13:00:56.852Z,21.85
2023-04-01T13:03:41.435Z,21.36
2023-04-01T13:06:29.750Z,21.16
2023-04-01T13:09:52.292Z,21.35
2023-04-01T13:13:07.304Z,21.64
2023-04-01T13:15:40.555Z,21.52
2023-04-01T13:18:12.302Z,21.52
2023-04-01T13:21:07.373Z,20.84
2023-04-01T13:23:49.232Z,21.33
2023-04-01T13:26:37.236Z,21.21
2023-04-01T13:29:40.919Z,21.20
2023-04-01T13:32:33.322Z,21.02
2023-04-01T13:35:35.249Z,20.53
2023-04-01T13:38:39.996Z,20.50
2023-04-01T13:41:50.624Z,21.30
2023-04-01T13:44:49.540Z,21.66
2023-04-01T13:47:31.984Z,21.57
2023-04-01T13:50:36.871Z,21.32
2023-04-01T13:53:41.604Z,21.27
2023-04-01T13:56:17.868Z,21.32
2023-04-01T13:59:09.283Z,21.45
2023-04-01T14:01:49.190Z,21.45
2023-04-01T14:04:39.111Z,21.32
2023-04-01T14:07:28.080Z,21.08
2023-04-01T14:10:26.767Z,20.81
2023-04-01T14:13:16.237Z,20.56
2023-04-01T14:16:06.106Z,20.43
2023-04-01T14:18:40.763Z,20.37
2023-04-01T14:21:46.124Z,19.89
2023-04-01T14:24:24.865Z,19.70
2023-04-01T14:27:10.865Z,19.72
2023-04-01T14:30:33.671Z,19.83
2023-04-01T14:33:48.781Z,19.69
2023-04-01T14:36:38.379Z,19.06
2023-04-01T14:39:32.102Z,19.19
2023-04-01T14:42:59.287Z,19.28
2023-04-01T14:45:35.082Z,19.22
2023-04-01T14:48:29.641Z,19.83
2023-04-01T14:51:40.531Z,19.81
2023-04-01T14:54:38.830Z,19.40
2023-04-01T15:00:29.452Z,19.83
2023-04-01T15:03:09.244Z,19.62
2023-04-01T15:06:13.411Z,19.76
2023-04-01T15:09:07.265Z,19.90
2023-04-01T15:12:12.422Z,19.87
2023-04-01T15:14:59.757Z,20.24
2023-04-01T15:17:45.459Z,20.66
2023-04-01T15:20:34.046Z,20.30
2023-04-01T15:23:41.435Z,19.99
2023-04-01T15:26:56.287Z,19.82
2023-04-01T15:30:27.701Z,19.34
2023-04-01T15:33:15.580Z,19.13
2023-04-01T15:35:57.587Z,19.13
2023-04-01T15:38:36.971Z,19.10
2023-04-01T15:41:09.102Z,19.10
2023-04-01T15:43:50.121Z,19.06
2023-04-01T15:46:23.184Z,19.15
2023-04-01T15:49:06.135Z,19.18
2023-04-01T15:52:11.742Z,19.29
2023-04-01T15:55:21.802Z,20.16
2023-04-01T15:58:27.555Z,20.04
2023-04-01T16:01:09.518Z,19.92
2023-04-01T16:04:20.077Z,19.93
2023-04-01T16:07:11.412Z,19.90
2023-04-01T16:09:56.149Z,19.57
2023-04-01T16:12:48.264Z,19.61
2023-04-01T16:15:56.076Z,19.48
2023-04-01T16:19:02.234Z,19.60
2023-04-01T16:21:49.103Z,19.55
2023-04-01T16:25:02.854Z,19.54
2023-04-01T16:28:26.530Z,19.64
2023-04-01T16:31:01.652Z,19.59
2023-04-01T16:33:58.923Z,19.53
2023-04-01T16:36:59.240Z,19.55
2023-04-01T16:40:03.935Z,19.40
2023-04-01T16:42:49.125Z,19.75
2023-04-01T16:46:04.243Z,19.43
2023-04-01T16:49:10.238Z,19.14
2023-04-01T16:51:42.181Z,19.09
2023-04-01T16:54:33.176Z,19.01
2023-04-01T16:57:08.886Z,19.05
2023-04-01T16:59:55.133Z,18.90
2023-04-01T17:02:37.054Z,18.87
2023-04-01T17:05:17.166Z,18.92
2023-04-01T17:08:05.760Z,18.95
2023-04-01T17:11:09.416Z,19.00
2023-04-01T17:14:00.467Z,18.82
2023-04-01T17:17:06.330Z,18.69
2023-04-01T17:20:12.501Z,18.75
2023-04-01T17:22:53.052Z,18.81
2023-04-01T17:25:41.829Z,18.48
2023-04-01T17:28:35.099Z,18.52
2023-04-01T17:31:23.428Z,18.41
2023-04-01T17:34:19.588Z,18.34
2023-04-01T17:37:23.887Z,18.34
2023-04-01T17:40:09.540Z,18.29
2023-04-01T17:42:54.627Z,18.23
2023-04-01T17:45:58.062Z,18.39
2023-04-01T17:48:56.460Z,18.33
2023-04-01T17:52:08.047Z,18.20
2023-04-01T17:58:37.989Z,17.98
2023-04-01T18:01:20.215Z,18.02
2023-04-01T18:03:59.882Z,17.88
2023-04-01T18:07:04.932Z,17.88
2023-04-01T18:10:05.254Z,17.93
2023-04-01T18:12:55.289Z,17.92
2023-04-01T18:16:06.439Z,17.88
2023-04-01T18:19:04.299Z,17.89
2023-04-01T18:21:34.293Z,17.88
2023-04-01T18:24:32.267Z,17.87
2023-04-01T18:27:52.715Z,17.71
2023-04-01T18:30:30.376Z,17.64
2023-04-01T18:33:18.296Z,17.67
2023-04-01T18:36:00.324Z,17.59
2023-04-01T18:38:44.643Z,17.60
2023-04-01T18:41:25.801Z,17.53
2023-04-01T18:44:27.771Z,17.49
2023-04-01T18:47:44.104Z,17.67
2023-04-01T18:50:38.920Z,17.56
2023-04-01T18:53:37.502Z,17.52
2023-04-01T18:56:09.146Z,17.55
2023-04-01T18:58:38.165Z,17.52
2023-04-01T19:01:30.231Z,17.48
2023-04-01T19:04:13.125Z,17.47
2023-04-01T19:07:00.316Z,17.37
2023-04-01T19:10:00.328Z,17.37
2023-04-01T19:12:32.723Z,17.36
2023-04-01T19:15:25.825Z,17.33
2023-04-01T19:18:15.389Z,17.34
2023-04-01T19:21:12.051Z,17.40
2023-04-01T19:24:00.004Z,17.34
2023-04-01T19:26:50.870Z,17.35
2023-04-01T19:29:52.159Z,17.28
2023-04-01T19:32:48.683Z,17.27
2023-04-01T19:35:47.499Z,17.27
2023-04-01T19:38:36.854Z,17.30
2023-04-01T19:41:41.012Z,17.18
2023-04-01T19:44:57.889Z,17.07
2023-04-01T19:48:01.382Z,17.14
2023-04-01T19:51:11.211Z,17.20
2023-04-01T19:53:52.988Z,17.10
2023-04-01T19:56:38.744Z,16.98
2023-04-01T19:59:22.560Z,17.06
2023-04-01T20:02:29.672Z,17.08
2023-04-01T20:05:15.321Z,17.10
2023-04-01T20:08:23.141Z,17.07
2023-04-01T20:11:06.868Z,17.12
2023-04-01T20:13:54.033Z,16.96
2023-04-01T20:16:30.325Z,17.01
2023-04-01T20:19:03.566Z,17.09
2023-04-01T20:21:48.336Z,17.12
2023-04-01T20:24:30.354Z,16.97
2023-04-01T20:27:25.226Z,16.89
2023-04-01T20:30:12.069Z,17.00
2023-04-01T20:33:15.495Z,17.09
2023-04-01T20:36:01.819Z,17.00
2023-04-01T20:38:32.011Z,16.90
2023-04-01T20:41:14.449Z,16.94
2023-04-01T20:44:13.755Z,16.89
2023-04-01T20:46:52.887Z,16.98
2023-04-01T20:49:26.260Z,17.07
2023-04-01T20:52:10.129Z,16.87
2023-04-01T20:54:46.450Z,16.90
2023-04-01T20:57:25.994Z,16.92
2023-04-01T21:00:10.082Z,16.82
2023-04-01T21:03:23.293Z,16.85
2023-04-01T21:05:52.697Z,16.79
2023-04-01T21:08:41.815Z,16.75
2023-04-01T21:11:16.072Z,16.85
2023-04-01T21:14:10.861Z,16.71
2023-04-01T21:17:06.993Z,16.58
2023-04-01T21:20:15.038Z,16.64
2023-04-01T21:23:32.735Z,16.83
2023-04-01T21:26:39.806Z,16.65
2023-04-01T21:29:35.548Z,16.64
2023-04-01T21:32:37.765Z,16.60
2023-04-01T21:35:35.438Z,16.69
2023-04-01T21:38:23.991Z,16.56
2023-04-01T21:41:06.760Z,16.55
2023-04-01T21:43:43.461Z,16.62
2023-04-01T21:46:29.306Z,16.61
2023-04-01T21:49:52.772Z,16.58
2023-04-01T21:53:19.393Z,16.56
2023-04-01T21:56:31.032Z,16.63
2023-04-01T21:59:40.752Z,16.49
2023-04-01T22:02:52.831Z,16.53
2023-04-01T22:05:41.594Z,16.57
2023-04-01T22:08:33.600Z,16.55
2023-04-01T22:11:24.322Z,16.66
2023-04-01T22:14:13.727Z,16.64
2023-04-01T22:16:49.072Z,16.62
2023-04-01T22:19:27.991Z,16.49
2023-04-01T22:22:40.777Z,16.45
2023-04-01T22:25:27.529Z,16.56
2023-04-01T22:28:04.474Z,16.45
2023-04-01T22:30:51.469Z,16.55
2023-04-01T22:36:41.241Z,16.61
2023-04-01T22:39:59.974Z,16.53
2023-04-01T22:42:45.892Z,16.47
2023-04-01T22:45:38.239Z,16.54
2023-04-01T22:48:54.514Z,16.39
2023-04-01T22:52:01.425Z,16.39
2023-04-01T22:54:57.747Z,16.39
2023-04-01T22:57:41.494Z,16.36
2023-04-01T23:00:29.180Z,16.45
2023-04-01T23:03:16.514Z,16.40
2023-04-01T23:06:00.221Z,16.47
2023-04-01T23:08:36.336Z,16.43
2023-04-01T23:11:18.504Z,16.29
2023-04-01T23:14:33.402Z,16.22
2023-04-01T23:17:31.536Z,16.28
2023-04-01T23:20:25.398Z,16.45
2023-04-01T23:23:10.600Z,16.40
2023-04-01T23:26:30.383Z,16.43
2023-04-01T23:29:18.829Z,16.35
2023-04-01T23:31:51.508Z,16.36
2023-04-01T23:34:37.685Z,16.23
2023-04-01T23:37:18.106Z,16.31
2023-04-01T23:39:57.203Z,16.23
2023-04-01T23:42:31.511Z,16.34
2023-04-01T23:45:24.867Z,16.41
2023-04-01T23:48:02.882Z,16.31
2023-04-01T23:50:29.944Z,16.29
2023-04-01T23:53:05.041Z,16.36
2023-04-01T23:55:38.006Z,16.37
2023-04-01T23:58:17.611Z,16.36
